createdAt,value
2019-01-11T00:01:54.928Z,1.57
2019-01-11T00:04:22.612Z,1.58
2019-01-11T00:06:50.118Z,1.58
2019-01-11T00:09:18.469Z,1.61
2019-01-11T00:11:45.930Z,1.58
2019-01-11T00:14:13.612Z,1.68
2019-01-11T00:16:40.489Z,1.69
2019-01-11T00:19:07.384Z,1.64
2019-01-11T00:21:34.885Z,1.70
2019-01-11T00:24:02.585Z,1.65
2019-01-11T00:26:29.730Z,1.70
2019-01-11T00:28:57.117Z,1.70
2019-01-11T00:31:25.200Z,1.75
2019-01-11T00:33:52.440Z,1.73
2019-01-11T00:36:20.213Z,1.71
2019-01-11T00:38:48.005Z,1.74
2019-01-11T00:41:16.447Z,1.82
2019-01-11T00:43:44.037Z,1.81
2019-01-11T00:46:11.119Z,1.86
2019-01-11T00:48:37.904Z,1.85
2019-01-11T00:51:05.465Z,1.86
2019-01-11T00:53:33.044Z,1.86
2019-01-11T00:56:00.777Z,1.89
2019-01-11T00:58:28.660Z,1.90
2019-01-11T01:00:55.344Z,1.94
2019-01-11T01:03:22.850Z,1.94
2019-01-11T01:05:50.405Z,1.93
2019-01-11T01:08:17.583Z,1.95
2019-01-11T01:10:46.438Z,1.92
2019-01-11T01:13:13.484Z,1.95
2019-01-11T01:15:40.829Z,2.00
2019-01-11T01:18:08.308Z,2.00
2019-01-11T01:20:35.854Z,2.00
2019-01-11T01:23:03.212Z,1.99
2019-01-11T01:25:31.181Z,2.01
2019-01-11T01:27:58.315Z,2.04
2019-01-11T01:30:25.579Z,1.16
2019-01-11T01:32:52.608Z,2.06
2019-01-11T01:35:20.073Z,2.08
2019-01-11T01:37:47.239Z,2.11
2019-01-11T01:40:14.893Z,2.11
2019-01-11T01:42:42.789Z,2.13
2019-01-11T01:45:12.383Z,2.12
2019-01-11T01:47:39.786Z,2.19
2019-01-11T01:50:07.898Z,2.16
2019-01-11T01:52:35.158Z,2.19
2019-01-11T01:55:02.919Z,2.24
2019-01-11T01:57:31.398Z,2.25
2019-01-11T01:59:59.649Z,2.26
2019-01-11T02:02:26.928Z,2.23
2019-01-11T02:04:53.710Z,2.25
2019-01-11T02:07:20.494Z,2.28
2019-01-11T02:09:47.830Z,2.29
2019-01-11T02:12:16.238Z,2.27
2019-01-11T02:14:43.532Z,2.29
2019-01-11T02:17:10.904Z,2.33
2019-01-11T02:19:38.270Z,2.28
2019-01-11T02:22:06.079Z,2.35
2019-01-11T02:24:33.376Z,2.37
2019-01-11T02:27:01.172Z,2.40
2019-01-11T02:29:28.002Z,2.43
2019-01-11T02:31:54.692Z,2.41
2019-01-11T02:34:21.361Z,2.49
2019-01-11T02:36:48.894Z,2.52
2019-01-11T02:39:16.310Z,2.54
2019-01-11T02:41:43.869Z,2.55
2019-01-11T02:44:10.940Z,2.58
2019-01-11T02:46:38.275Z,2.61
2019-01-11T02:49:06.244Z,2.60
2019-01-11T02:51:33.738Z,2.64
2019-01-11T02:54:00.892Z,2.70
2019-01-11T02:56:28.005Z,2.68
2019-01-11T02:58:55.461Z,2.70
2019-01-11T03:01:22.298Z,2.64
2019-01-11T03:03:48.968Z,2.68
2019-01-11T03:06:15.763Z,2.72
2019-01-11T03:08:43.046Z,2.84
2019-01-11T03:11:10.281Z,2.84
2019-01-11T03:13:37.308Z,2.80
2019-01-11T03:16:04.687Z,2.90
2019-01-11T03:18:32.149Z,2.85
2019-01-11T03:20:59.907Z,2.88
2019-01-11T03:23:27.704Z,3.05
2019-01-11T03:25:54.481Z,2.98
2019-01-11T03:28:21.418Z,3.05
2019-01-11T03:30:48.613Z,3.04
2019-01-11T03:33:15.407Z,3.12
2019-01-11T03:35:42.591Z,3.06
2019-01-11T03:38:09.365Z,3.12
2019-01-11T03:40:36.780Z,3.04
2019-01-11T03:43:04.361Z,3.19
2019-01-11T03:45:32.624Z,3.18
2019-01-11T03:47:59.781Z,3.01
2019-01-11T03:50:26.562Z,3.07
2019-01-11T03:52:53.340Z,3.15
2019-01-11T03:55:20.622Z,3.12
2019-01-11T03:57:47.860Z,3.03
2019-01-11T04:00:22.260Z,3.13
2019-01-11T04:02:49.144Z,3.08
2019-01-11T04:05:16.994Z,3.16
2019-01-11T04:07:43.797Z,3.13
2019-01-11T04:10:14.375Z,3.19
2019-01-11T04:12:41.971Z,3.20
2019-01-11T04:15:09.486Z,3.26
2019-01-11T04:17:37.867Z,3.18
2019-01-11T04:20:07.032Z,3.22
2019-01-11T04:22:37.682Z,3.29
2019-01-11T04:25:07.203Z,3.33
2019-01-11T04:27:34.224Z,3.32
2019-01-11T04:30:01.363Z,3.40
2019-01-11T04:32:28.243Z,3.43
2019-01-11T04:34:55.410Z,3.40
2019-01-11T04:37:22.626Z,3.47
2019-01-11T04:39:50.809Z,3.47
2019-01-11T04:42:18.775Z,3.52
2019-01-11T04:44:45.445Z,3.55
2019-01-11T04:47:13.079Z,3.52
2019-01-11T04:49:41.075Z,3.65
2019-01-11T04:52:08.131Z,3.54
2019-01-11T04:54:35.088Z,3.60
2019-01-11T04:57:02.295Z,3.66
2019-01-11T04:59:29.250Z,3.60
2019-01-11T05:01:56.919Z,3.66
2019-01-11T05:04:24.172Z,3.78
2019-01-11T05:06:51.493Z,3.75
2019-01-11T05:09:18.407Z,3.73
2019-01-11T05:11:45.971Z,3.84
2019-01-11T05:14:12.647Z,3.87
2019-01-11T05:16:39.983Z,3.81
2019-01-11T05:19:08.160Z,3.85
2019-01-11T05:21:34.968Z,3.91
2019-01-11T05:24:01.910Z,3.90
2019-01-11T05:26:29.725Z,3.92
2019-01-11T05:28:57.196Z,4.01
2019-01-11T05:31:23.981Z,3.96
2019-01-11T05:33:51.531Z,4.02
2019-01-11T05:36:19.062Z,4.03
2019-01-11T05:38:46.669Z,4.04
2019-01-11T05:41:14.058Z,4.08
2019-01-11T05:43:41.058Z,4.21
2019-01-11T05:46:08.845Z,4.18
2019-01-11T05:48:35.771Z,4.16
2019-01-11T05:51:02.867Z,4.22
2019-01-11T05:53:29.906Z,4.21
2019-01-11T05:55:57.844Z,4.29
2019-01-11T05:58:32.985Z,4.33
2019-01-11T06:00:59.928Z,4.35
2019-01-11T06:03:26.990Z,4.37
2019-01-11T06:05:53.787Z,4.41
2019-01-11T06:08:21.259Z,4.50
2019-01-11T06:10:47.966Z,4.57
2019-01-11T06:13:14.791Z,4.61
2019-01-11T06:15:42.012Z,4.58
2019-01-11T06:18:09.694Z,4.77
2019-01-11T06:20:36.588Z,4.76
2019-01-11T06:23:04.507Z,4.71
2019-01-11T06:25:31.637Z,4.71
2019-01-11T06:27:59.418Z,4.75
2019-01-11T06:30:26.554Z,4.81
2019-01-11T06:32:53.908Z,4.81
2019-01-11T06:35:21.145Z,4.79
2019-01-11T06:37:47.948Z,4.89
2019-01-11T06:40:16.488Z,4.84
2019-01-11T06:42:43.508Z,4.98
2019-01-11T06:45:11.304Z,5.05
2019-01-11T06:47:39.212Z,5.01
2019-01-11T06:50:09.320Z,5.06
2019-01-11T06:52:36.103Z,4.97
2019-01-11T06:55:04.950Z,5.10
2019-01-11T06:57:31.600Z,5.14
2019-01-11T06:59:58.787Z,5.19
2019-01-11T07:02:26.776Z,5.13
2019-01-11T07:04:54.073Z,5.21
2019-01-11T07:07:21.810Z,5.18
2019-01-11T07:09:49.620Z,5.21
2019-01-11T07:12:18.552Z,5.25
2019-01-11T07:14:45.632Z,5.27
2019-01-11T07:17:12.554Z,5.32
2019-01-11T07:19:40.714Z,5.29
2019-01-11T07:22:07.753Z,5.36
2019-01-11T07:24:36.234Z,5.42
2019-01-11T07:27:03.049Z,5.37
2019-01-11T07:29:30.429Z,5.41
2019-01-11T07:32:00.143Z,5.41
2019-01-11T07:34:27.826Z,5.42
2019-01-11T07:36:55.764Z,5.45
2019-01-11T07:39:32.042Z,5.45
2019-01-11T07:41:59.395Z,5.52
2019-01-11T07:44:26.810Z,5.56
2019-01-11T07:46:53.829Z,5.58
2019-01-11T07:49:23.315Z,5.57
2019-01-11T07:51:50.216Z,5.56
2019-01-11T07:54:17.493Z,5.63
2019-01-11T07:56:44.752Z,5.68
2019-01-11T07:59:13.316Z,5.70
2019-01-11T08:01:40.969Z,5.69
2019-01-11T08:04:08.816Z,5.81
2019-01-11T08:06:35.603Z,5.84
2019-01-11T08:09:06.497Z,5.87
2019-01-11T08:11:34.601Z,5.83
2019-01-11T08:14:01.600Z,5.90
2019-01-11T08:16:28.286Z,5.86
2019-01-11T08:18:54.985Z,5.86
2019-01-11T08:21:22.217Z,5.92
2019-01-11T08:23:49.432Z,5.99
2019-01-11T08:26:17.606Z,6.05
2019-01-11T08:28:44.886Z,6.07
2019-01-11T08:31:12.273Z,6.06
2019-01-11T08:33:39.933Z,6.07
2019-01-11T08:36:07.128Z,6.09
2019-01-11T08:38:35.005Z,6.16
2019-01-11T08:41:02.234Z,6.18
2019-01-11T08:43:30.114Z,6.23
2019-01-11T08:45:57.726Z,6.22
2019-01-11T08:48:24.659Z,6.22
2019-01-11T08:50:51.874Z,6.27
2019-01-11T08:53:19.188Z,6.31
2019-01-11T08:55:46.468Z,6.36
2019-01-11T08:58:13.630Z,6.39
2019-01-11T09:00:40.885Z,6.39
2019-01-11T09:03:08.434Z,6.42
2019-01-11T09:05:36.198Z,6.41
2019-01-11T09:08:03.403Z,6.44
2019-01-11T09:10:30.611Z,6.44
2019-01-11T09:12:58.151Z,6.43
2019-01-11T09:15:25.617Z,6.45
2019-01-11T09:18:01.620Z,6.41
2019-01-11T09:20:28.628Z,6.45
2019-01-11T09:22:55.726Z,6.43
2019-01-11T09:25:22.925Z,6.49
2019-01-11T09:27:49.943Z,6.52
2019-01-11T09:30:17.515Z,6.53
2019-01-11T09:32:45.047Z,6.55
2019-01-11T09:35:12.121Z,6.56
2019-01-11T09:37:39.560Z,6.59
2019-01-11T09:40:06.950Z,6.53
2019-01-11T09:42:34.224Z,6.55
2019-01-11T09:45:01.381Z,6.56
2019-01-11T09:47:28.739Z,6.55
2019-01-11T09:49:55.430Z,6.49
2019-01-11T09:52:22.103Z,6.52
2019-01-11T09:54:49.931Z,6.57
2019-01-11T09:57:16.603Z,6.57
2019-01-11T09:59:43.380Z,6.55
2019-01-11T10:02:33.586Z,6.55
2019-01-11T10:05:00.636Z,6.55
2019-01-11T10:07:30.007Z,6.58
2019-01-11T10:09:57.166Z,6.61
2019-01-11T10:12:24.348Z,6.63
2019-01-11T10:14:52.428Z,6.62
2019-01-11T10:17:20.125Z,6.66
2019-01-11T10:19:47.011Z,6.80
2019-01-11T10:22:14.482Z,6.87
2019-01-11T10:24:41.965Z,6.91
2019-01-11T10:27:09.145Z,6.93
2019-01-11T10:29:36.224Z,6.94
2019-01-11T10:32:03.718Z,7.05
2019-01-11T10:34:31.254Z,7.05
2019-01-11T10:36:58.035Z,7.02
2019-01-11T10:39:25.255Z,6.97
2019-01-11T10:41:52.128Z,7.07
2019-01-11T10:44:18.816Z,7.03
2019-01-11T10:46:49.224Z,7.03
2019-01-11T10:49:14.969Z,7.00
2019-01-11T10:51:41.660Z,6.99
2019-01-11T10:54:16.628Z,7.00
2019-01-11T10:56:44.205Z,7.01
2019-01-11T10:59:11.236Z,6.99
2019-01-11T11:01:38.278Z,6.96
2019-01-11T11:04:06.377Z,7.01
2019-01-11T11:06:33.585Z,7.00
2019-01-11T11:09:00.656Z,6.96
2019-01-11T11:11:27.901Z,6.97
2019-01-11T11:13:55.336Z,6.99
2019-01-11T11:16:22.130Z,6.97
2019-01-11T11:18:49.989Z,7.12
2019-01-11T11:21:16.793Z,7.02
2019-01-11T11:23:44.089Z,7.00
2019-01-11T11:26:10.777Z,6.96
2019-01-11T11:28:37.768Z,6.96
2019-01-11T11:31:04.610Z,6.96
2019-01-11T11:33:31.280Z,7.02
2019-01-11T11:35:58.224Z,7.05
2019-01-11T11:38:25.007Z,7.02
2019-01-11T11:40:52.169Z,7.07
2019-01-11T11:43:19.984Z,7.06
2019-01-11T11:45:47.201Z,7.07
2019-01-11T11:48:14.017Z,7.07
2019-01-11T11:50:40.695Z,7.09
2019-01-11T11:53:08.753Z,7.04
2019-01-11T11:55:37.113Z,7.05
2019-01-11T11:58:04.346Z,7.02
2019-01-11T12:00:31.725Z,7.01
2019-01-11T12:02:58.678Z,7.05
2019-01-11T12:05:26.647Z,7.04
2019-01-11T12:07:54.845Z,7.06
2019-01-11T12:10:21.988Z,7.04
2019-01-11T12:12:49.840Z,7.04
2019-01-11T12:15:17.864Z,7.05
2019-01-11T12:17:45.035Z,7.06
2019-01-11T12:20:19.067Z,7.03
2019-01-11T12:22:46.525Z,7.01
2019-01-11T12:25:13.218Z,7.03
2019-01-11T12:27:41.232Z,7.03
2019-01-11T12:30:09.940Z,7.07
2019-01-11T12:32:36.611Z,7.06
2019-01-11T12:35:03.846Z,7.19
2019-01-11T12:37:30.527Z,7.23
2019-01-11T12:39:58.712Z,7.27
2019-01-11T12:42:26.520Z,7.33
2019-01-11T12:44:54.452Z,7.34
2019-01-11T12:47:21.378Z,7.32
2019-01-11T12:49:49.161Z,7.34
2019-01-11T12:52:15.833Z,7.29
2019-01-11T12:54:43.586Z,7.28
2019-01-11T12:57:11.114Z,7.35
2019-01-11T12:59:38.239Z,7.31
2019-01-11T13:02:05.807Z,7.29
2019-01-11T13:04:33.082Z,7.31
2019-01-11T13:06:59.891Z,7.30
2019-01-11T13:09:27.592Z,7.23
2019-01-11T13:11:54.284Z,7.25
2019-01-11T13:14:21.076Z,7.27
2019-01-11T13:16:48.341Z,7.23
2019-01-11T13:19:15.857Z,7.26
2019-01-11T13:21:43.208Z,7.22
2019-01-11T13:24:10.640Z,7.25
2019-01-11T13:26:37.377Z,7.25
2019-01-11T13:29:04.886Z,7.27
2019-01-11T13:31:31.924Z,7.26
2019-01-11T13:33:59.152Z,7.27
2019-01-11T13:36:26.636Z,7.26
2019-01-11T13:38:54.276Z,7.30
2019-01-11T13:41:22.272Z,7.23
2019-01-11T13:43:50.332Z,7.28
2019-01-11T13:46:17.038Z,7.25
2019-01-11T13:48:44.640Z,7.28
2019-01-11T13:51:11.425Z,7.23
2019-01-11T13:53:38.975Z,7.20
2019-01-11T13:56:06.276Z,7.20
2019-01-11T13:58:33.044Z,7.20
2019-01-11T14:00:59.877Z,7.17
2019-01-11T14:03:27.834Z,7.21
2019-01-11T14:05:55.488Z,7.17
2019-01-11T14:08:23.102Z,7.19
2019-01-11T14:10:50.496Z,7.19
2019-01-11T14:13:17.646Z,7.12
2019-01-11T14:15:45.434Z,7.07
2019-01-11T14:18:12.192Z,7.08
2019-01-11T14:20:39.329Z,7.09
2019-01-11T14:23:06.116Z,7.10
2019-01-11T14:25:35.158Z,7.15
2019-01-11T14:28:02.103Z,7.13
2019-01-11T14:30:29.351Z,7.14
2019-01-11T14:32:57.196Z,7.13
2019-01-11T14:35:24.570Z,7.11
2019-01-11T14:37:51.343Z,7.04
2019-01-11T14:40:19.140Z,7.04
2019-01-11T14:42:46.447Z,7.05
2019-01-11T14:45:14.267Z,7.05
2019-01-11T14:47:41.290Z,7.06
2019-01-11T14:50:10.992Z,7.03
2019-01-11T14:52:38.197Z,6.96
2019-01-11T14:55:06.048Z,6.93
2019-01-11T14:57:33.872Z,6.93
2019-01-11T15:00:01.088Z,6.87
2019-01-11T15:02:28.744Z,6.90
2019-01-11T15:04:55.430Z,6.88
2019-01-11T15:07:23.040Z,6.92
2019-01-11T15:09:50.355Z,6.91
2019-01-11T15:12:17.992Z,6.87
2019-01-11T15:14:45.544Z,6.90
2019-01-11T15:17:12.594Z,6.96
2019-01-11T15:19:39.544Z,6.88
2019-01-11T15:22:07.000Z,6.87
2019-01-11T15:24:34.425Z,6.85
2019-01-11T15:27:02.502Z,6.85
2019-01-11T15:29:29.192Z,6.84
2019-01-11T15:31:57.198Z,6.81
2019-01-11T15:34:23.988Z,6.75
2019-01-11T15:36:51.095Z,6.74
2019-01-11T15:39:18.551Z,7.15
2019-01-11T15:41:45.709Z,7.09
2019-01-11T15:44:12.945Z,6.92
2019-01-11T15:46:40.385Z,6.84
2019-01-11T15:49:07.724Z,6.89
2019-01-11T15:51:34.759Z,6.82
2019-01-11T15:54:03.100Z,7.09
2019-01-11T15:56:30.660Z,6.82
2019-01-11T15:58:57.928Z,6.83
2019-01-11T16:01:25.118Z,6.80
2019-01-11T16:03:53.532Z,6.72
2019-01-11T16:06:31.148Z,6.73
2019-01-11T16:09:12.993Z,6.71
2019-01-11T16:11:44.359Z,6.66
2019-01-11T16:14:56.049Z,6.75
2019-01-11T16:17:24.156Z,6.64
2019-01-11T16:19:51.100Z,6.69
2019-01-11T16:22:18.433Z,6.67
2019-01-11T16:24:45.391Z,6.66
2019-01-11T16:27:12.296Z,6.70
2019-01-11T16:29:39.344Z,6.61
2019-01-11T16:32:06.659Z,6.59
2019-01-11T16:34:34.356Z,6.62
2019-01-11T16:37:01.521Z,6.66
2019-01-11T16:39:30.123Z,6.61
2019-01-11T16:41:57.244Z,6.55
2019-01-11T16:44:24.514Z,6.60
2019-01-11T16:46:51.665Z,6.62
2019-01-11T16:49:18.565Z,6.55
2019-01-11T16:51:45.334Z,6.60
2019-01-11T16:54:12.686Z,6.61
2019-01-11T16:56:40.569Z,6.60
2019-01-11T16:59:07.531Z,6.56
2019-01-11T17:01:34.889Z,6.56
2019-01-11T17:04:01.917Z,6.57
2019-01-11T17:06:29.173Z,6.59
2019-01-11T17:08:56.515Z,6.56
2019-01-11T17:11:23.962Z,6.58
2019-01-11T17:13:51.644Z,6.54
2019-01-11T17:16:18.335Z,6.53
2019-01-11T17:18:46.148Z,6.53
2019-01-11T17:21:13.686Z,6.54
2019-01-11T17:23:41.002Z,6.59
2019-01-11T17:26:08.217Z,6.55
2019-01-11T17:28:36.058Z,6.53
2019-01-11T17:31:03.377Z,6.54
2019-01-11T17:33:30.778Z,6.62
2019-01-11T17:35:58.011Z,6.55
2019-01-11T17:38:25.002Z,6.56
2019-01-11T17:40:52.536Z,6.56
2019-01-11T17:43:19.481Z,6.56
2019-01-11T17:45:47.599Z,6.53
2019-01-11T17:48:14.540Z,6.55
2019-01-11T17:50:43.084Z,6.63
2019-01-11T17:53:10.843Z,6.49
2019-01-11T17:55:37.882Z,6.43
2019-01-11T17:58:04.978Z,6.49
2019-01-11T18:00:31.759Z,6.51
2019-01-11T18:02:59.567Z,6.49
2019-01-11T18:05:26.437Z,6.39
2019-01-11T18:07:54.335Z,6.37
2019-01-11T18:10:21.821Z,6.32
2019-01-11T18:12:48.628Z,6.38
2019-01-11T18:15:19.436Z,6.36
2019-01-11T18:17:47.263Z,6.35
2019-01-11T18:20:22.472Z,6.33
2019-01-11T18:22:49.939Z,6.28
2019-01-11T18:25:16.953Z,6.29
2019-01-11T18:27:43.865Z,6.22
2019-01-11T18:30:12.720Z,6.17
2019-01-11T18:32:41.825Z,6.19
2019-01-11T18:35:09.882Z,6.12
2019-01-11T18:37:37.338Z,6.06
2019-01-11T18:40:06.618Z,6.00
2019-01-11T18:42:33.686Z,5.99
2019-01-11T18:45:01.818Z,5.95
2019-01-11T18:47:29.629Z,5.94
2019-01-11T18:49:57.324Z,5.89
2019-01-11T18:52:24.404Z,5.86
2019-01-11T18:54:51.813Z,5.96
2019-01-11T18:57:19.491Z,7.84
2019-01-11T18:59:47.451Z,7.09
2019-01-11T19:02:14.546Z,6.90
2019-01-11T19:04:42.866Z,6.26
2019-01-11T19:07:10.089Z,6.04
2019-01-11T19:09:36.933Z,5.93
2019-01-11T19:12:05.212Z,5.93
2019-01-11T19:14:32.994Z,5.89
2019-01-11T19:17:00.130Z,5.86
2019-01-11T19:19:27.690Z,5.86
2019-01-11T19:21:55.362Z,5.82
2019-01-11T19:24:22.643Z,5.81
2019-01-11T19:26:50.433Z,5.79
2019-01-11T19:29:17.155Z,5.79
2019-01-11T19:31:44.487Z,5.71
2019-01-11T19:34:11.418Z,5.68
2019-01-11T19:36:39.281Z,5.73
2019-01-11T19:39:07.126Z,5.68
2019-01-11T19:41:35.116Z,5.64
2019-01-11T19:44:02.359Z,5.60
2019-01-11T19:46:29.499Z,5.60
2019-01-11T19:48:56.421Z,5.57
2019-01-11T19:51:23.627Z,5.54
2019-01-11T19:53:50.333Z,5.59
2019-01-11T19:56:17.778Z,5.56
2019-01-11T19:58:44.983Z,5.60
2019-01-11T20:01:12.085Z,5.64
2019-01-11T20:03:40.310Z,5.57
2019-01-11T20:06:07.576Z,5.57
2019-01-11T20:08:35.965Z,5.55
2019-01-11T20:11:03.485Z,5.53
2019-01-11T20:13:30.750Z,5.66
2019-01-11T20:15:57.942Z,5.60
2019-01-11T20:18:24.979Z,5.61
2019-01-11T20:20:52.727Z,5.61
2019-01-11T20:23:19.874Z,5.75
2019-01-11T20:25:47.697Z,5.80
2019-01-11T20:28:15.651Z,5.81
2019-01-11T20:30:43.533Z,5.79
2019-01-11T20:33:11.697Z,5.71
2019-01-11T20:35:38.793Z,5.73
2019-01-11T20:38:07.154Z,5.69
2019-01-11T20:40:34.691Z,5.85
2019-01-11T20:43:03.788Z,5.62
2019-01-11T20:45:32.973Z,5.61
2019-01-11T20:48:02.362Z,5.59
2019-01-11T20:50:29.732Z,5.97
2019-01-11T20:52:57.195Z,5.73
2019-01-11T20:55:25.155Z,5.67
2019-01-11T20:57:52.919Z,5.91
2019-01-11T21:00:29.026Z,5.49
2019-01-11T21:02:56.161Z,5.80
2019-01-11T21:05:24.554Z,5.55
2019-01-11T21:07:51.655Z,5.73
2019-01-11T21:10:19.188Z,5.54
2019-01-11T21:12:46.917Z,5.70
2019-01-11T21:15:14.589Z,5.54
2019-01-11T21:17:41.979Z,5.49
2019-01-11T21:20:11.818Z,5.42
2019-01-11T21:22:39.375Z,5.37
2019-01-11T21:25:10.530Z,5.42
2019-01-11T21:27:38.004Z,5.36
2019-01-11T21:30:10.181Z,5.65
2019-01-11T21:32:37.379Z,5.61
2019-01-11T21:35:04.851Z,5.54
2019-01-11T21:37:31.891Z,5.49
2019-01-11T21:40:00.212Z,5.36
2019-01-11T21:42:27.732Z,5.34
2019-01-11T21:44:54.562Z,5.31
2019-01-11T21:47:22.136Z,5.35
2019-01-11T21:49:50.699Z,5.47
2019-01-11T21:52:17.957Z,5.26
2019-01-11T21:54:45.636Z,5.24
2019-01-11T21:57:13.193Z,5.25
2019-01-11T21:59:40.670Z,5.17
2019-01-11T22:02:08.260Z,5.22
2019-01-11T22:04:34.944Z,5.29
2019-01-11T22:07:02.207Z,5.30
2019-01-11T22:09:31.378Z,5.29
2019-01-11T22:11:58.805Z,5.29
2019-01-11T22:14:26.005Z,5.27
2019-01-11T22:16:55.088Z,5.23
2019-01-11T22:19:23.507Z,5.32
2019-01-11T22:21:51.671Z,5.38
2019-01-11T22:24:18.900Z,5.35
2019-01-11T22:26:45.605Z,5.35
2019-01-11T22:29:12.912Z,5.39
2019-01-11T22:31:40.584Z,5.35
2019-01-11T22:34:07.789Z,5.25
2019-01-11T22:36:34.941Z,5.31
2019-01-11T22:39:03.996Z,5.32
2019-01-11T22:41:31.973Z,5.32
2019-01-11T22:43:59.901Z,5.35
2019-01-11T22:46:27.333Z,5.33
2019-01-11T22:48:55.109Z,5.37
2019-01-11T22:51:21.816Z,5.30
2019-01-11T22:53:49.253Z,5.23
2019-01-11T22:56:16.046Z,5.32
2019-01-11T22:58:42.998Z,5.31
2019-01-11T23:01:39.402Z,5.34
2019-01-11T23:04:07.084Z,5.32
2019-01-11T23:07:03.376Z,5.36
2019-01-11T23:09:59.432Z,5.38
2019-01-11T23:12:42.927Z,5.39
2019-01-11T23:15:18.392Z,5.42
2019-01-11T23:17:49.246Z,5.48
2019-01-11T23:20:16.448Z,5.48
2019-01-11T23:22:43.700Z,5.48
2019-01-11T23:25:11.410Z,5.53
2019-01-11T23:27:39.056Z,5.55
2019-01-11T23:30:10.681Z,5.63
2019-01-11T23:32:39.602Z,5.63
2019-01-11T23:35:07.261Z,5.69
2019-01-11T23:37:34.642Z,5.67
2019-01-11T23:40:01.554Z,5.71
2019-01-11T23:42:29.146Z,5.72
2019-01-11T23:44:56.217Z,5.72
2019-01-11T23:47:23.319Z,5.72
2019-01-11T23:49:50.012Z,5.81
2019-01-11T23:52:16.700Z,5.82
2019-01-11T23:54:44.476Z,5.82
2019-01-11T23:57:11.768Z,5.81
2019-01-11T23:59:38.879Z,5.78
